sensor_id;sensor_type;location;lat;lon;timestamp;pressure;altitude;pressure_sealevel;temperature
48894;BMP280;34710;35.798;139.446;2022-07-29T00:01:13;100805.29;;;32.02
48894;BMP280;34710;35.798;139.446;2022-07-29T00:04:03;100805.68;;;33.11
48894;BMP280;34710;35.798;139.446;2022-07-29T00:06:49;100801.26;;;33.70
48894;BMP280;34710;35.798;139.446;2022-07-29T00:09:34;100795.87;;;34.73
48894;BMP280;34710;35.798;139.446;2022-07-29T00:12:23;100794.69;;;33.47
48894;BMP280;34710;35.798;139.446;2022-07-29T00:15:13;100794.04;;;32.97
48894;BMP280;34710;35.798;139.446;2022-07-29T00:18:05;100793.15;;;33.70
48894;BMP280;34710;35.798;139.446;2022-07-29T00:20:47;100792.13;;;34.05
48894;BMP280;34710;35.798;139.446;2022-07-29T00:23:36;100786.28;;;35.31
48894;BMP280;34710;35.798;139.446;2022-07-29T00:26:27;100791.74;;;34.55
48894;BMP280;34710;35.798;139.446;2022-07-29T00:29:14;100789.88;;;33.98
48894;BMP280;34710;35.798;139.446;2022-07-29T00:32:00;100786.97;;;34.97
48894;BMP280;34710;35.798;139.446;2022-07-29T00:34:46;100777.17;;;35.33
48894;BMP280;34710;35.798;139.446;2022-07-29T00:37:41;100778.94;;;34.31
48894;BMP280;34710;35.798;139.446;2022-07-29T00:40:29;100767.85;;;36.05
48894;BMP280;34710;35.798;139.446;2022-07-29T00:43:15;100767.56;;;36.33
48894;BMP280;34710;35.798;139.446;2022-07-29T00:46:10;100768.59;;;33.79
48894;BMP280;34710;35.798;139.446;2022-07-29T00:48:56;100764.55;;;34.03
48894;BMP280;34710;35.798;139.446;2022-07-29T00:51:46;100760.86;;;35.35
48894;BMP280;34710;35.798;139.446;2022-07-29T00:54:30;100761.62;;;34.47
48894;BMP280;34710;35.798;139.446;2022-07-29T00:57:21;100764.81;;;32.50
48894;BMP280;34710;35.798;139.446;2022-07-29T01:00:10;100762.21;;;33.53
48894;BMP280;34710;35.798;139.446;2022-07-29T01:03:04;100751.48;;;35.28
48894;BMP280;34710;35.798;139.446;2022-07-29T01:05:55;100755.30;;;36.70
48894;BMP280;34710;35.798;139.446;2022-07-29T01:08:41;100752.69;;;37.05
48894;BMP280;34710;35.798;139.446;2022-07-29T01:11:28;100753.92;;;36.50
48894;BMP280;34710;35.798;139.446;2022-07-29T01:14:19;100752.24;;;38.13
48894;BMP280;34710;35.798;139.446;2022-07-29T01:17:26;100746.55;;;36.10
48894;BMP280;34710;35.798;139.446;2022-07-29T01:20:20;100745.98;;;36.80
48894;BMP280;34710;35.798;139.446;2022-07-29T01:23:30;100732.92;;;36.58
48894;BMP280;34710;35.798;139.446;2022-07-29T01:26:49;100729.86;;;36.51
48894;BMP280;34710;35.798;139.446;2022-07-29T01:29:48;100722.13;;;36.39
48894;BMP280;34710;35.798;139.446;2022-07-29T01:32:41;100721.99;;;34.46
48894;BMP280;34710;35.798;139.446;2022-07-29T01:35:36;100719.84;;;34.99
48894;BMP280;34710;35.798;139.446;2022-07-29T01:38:32;100712.60;;;35.61
48894;BMP280;34710;35.798;139.446;2022-07-29T01:41:24;100711.72;;;36.41
48894;BMP280;34710;35.798;139.446;2022-07-29T01:44:22;100704.23;;;37.58
48894;BMP280;34710;35.798;139.446;2022-07-29T01:47:19;100696.16;;;37.48
48894;BMP280;34710;35.798;139.446;2022-07-29T01:50:26;100691.34;;;37.08
48894;BMP280;34710;35.798;139.446;2022-07-29T01:53:25;100686.32;;;35.75
48894;BMP280;34710;35.798;139.446;2022-07-29T01:56:23;100681.74;;;37.08
48894;BMP280;34710;35.798;139.446;2022-07-29T01:59:20;100677.06;;;37.62
48894;BMP280;34710;35.798;139.446;2022-07-29T02:02:25;100679.20;;;37.05
48894;BMP280;34710;35.798;139.446;2022-07-29T02:05:28;100672.93;;;37.43
48894;BMP280;34710;35.798;139.446;2022-07-29T02:08:26;100668.07;;;38.41
48894;BMP280;34710;35.798;139.446;2022-07-29T02:11:23;100665.11;;;35.76
48894;BMP280;34710;35.798;139.446;2022-07-29T02:14:22;100657.87;;;36.72
48894;BMP280;34710;35.798;139.446;2022-07-29T02:17:21;100652.22;;;35.57
48894;BMP280;34710;35.798;139.446;2022-07-29T02:20:23;100652.67;;;35.12
48894;BMP280;34710;35.798;139.446;2022-07-29T02:23:27;100647.51;;;36.93
48894;BMP280;34710;35.798;139.446;2022-07-29T02:26:23;100637.64;;;39.00
48894;BMP280;34710;35.798;139.446;2022-07-29T02:29:19;100636.08;;;39.61
48894;BMP280;34710;35.798;139.446;2022-07-29T02:32:20;100636.36;;;38.29
48894;BMP280;34710;35.798;139.446;2022-07-29T02:35:21;100628.82;;;38.05
48894;BMP280;34710;35.798;139.446;2022-07-29T02:38:20;100628.34;;;37.76
48894;BMP280;34710;35.798;139.446;2022-07-29T02:41:27;100623.70;;;36.62
48894;BMP280;34710;35.798;139.446;2022-07-29T02:44:28;100613.74;;;38.06
48894;BMP280;34710;35.798;139.446;2022-07-29T02:47:39;100617.68;;;36.29
48894;BMP280;34710;35.798;139.446;2022-07-29T02:50:42;100611.45;;;36.29
48894;BMP280;34710;35.798;139.446;2022-07-29T02:53:34;100612.54;;;36.01
48894;BMP280;34710;35.798;139.446;2022-07-29T02:56:35;100613.99;;;37.04
48894;BMP280;34710;35.798;139.446;2022-07-29T02:59:30;100610.37;;;37.96
48894;BMP280;34710;35.798;139.446;2022-07-29T03:02:25;100599.70;;;37.69
48894;BMP280;34710;35.798;139.446;2022-07-29T03:05:21;100591.27;;;38.45
48894;BMP280;34710;35.798;139.446;2022-07-29T03:08:13;100595.22;;;37.05
48894;BMP280;34710;35.798;139.446;2022-07-29T03:11:14;100588.50;;;37.01
48894;BMP280;34710;35.798;139.446;2022-07-29T03:14:14;100586.24;;;37.78
48894;BMP280;34710;35.798;139.446;2022-07-29T03:17:11;100580.00;;;38.27
48894;BMP280;34710;35.798;139.446;2022-07-29T03:20:10;100579.63;;;37.07
48894;BMP280;34710;35.798;139.446;2022-07-29T03:23:06;100568.64;;;37.54
48894;BMP280;34710;35.798;139.446;2022-07-29T03:25:59;100570.49;;;36.92
48894;BMP280;34710;35.798;139.446;2022-07-29T03:28:55;100565.72;;;36.97
48894;BMP280;34710;35.798;139.446;2022-07-29T03:31:52;100554.07;;;37.17
48894;BMP280;34710;35.798;139.446;2022-07-29T03:34:49;100548.83;;;38.18
48894;BMP280;34710;35.798;139.446;2022-07-29T03:37:50;100548.33;;;37.74
48894;BMP280;34710;35.798;139.446;2022-07-29T03:40:53;100542.19;;;38.63
48894;BMP280;34710;35.798;139.446;2022-07-29T03:43:52;100539.31;;;39.80
48894;BMP280;34710;35.798;139.446;2022-07-29T03:46:45;100540.62;;;39.37
48894;BMP280;34710;35.798;139.446;2022-07-29T03:49:44;100538.22;;;37.35
48894;BMP280;34710;35.798;139.446;2022-07-29T03:52:43;100535.40;;;35.86
48894;BMP280;34710;35.798;139.446;2022-07-29T03:55:45;100535.77;;;36.91
48894;BMP280;34710;35.798;139.446;2022-07-29T03:58:46;100528.12;;;36.24
48894;BMP280;34710;35.798;139.446;2022-07-29T04:01:45;100527.39;;;35.58
48894;BMP280;34710;35.798;139.446;2022-07-29T04:04:47;100522.09;;;35.02
48894;BMP280;34710;35.798;139.446;2022-07-29T04:07:50;100525.18;;;35.34
48894;BMP280;34710;35.798;139.446;2022-07-29T04:10:54;100516.02;;;36.53
48894;BMP280;34710;35.798;139.446;2022-07-29T04:13:46;100516.55;;;36.75
48894;BMP280;34710;35.798;139.446;2022-07-29T04:16:38;100512.05;;;36.79
48894;BMP280;34710;35.798;139.446;2022-07-29T04:19:42;100507.80;;;36.91
48894;BMP280;34710;35.798;139.446;2022-07-29T04:22:57;100500.99;;;37.75
48894;BMP280;34710;35.798;139.446;2022-07-29T04:26:00;100503.88;;;38.13
48894;BMP280;34710;35.798;139.446;2022-07-29T04:29:15;100499.17;;;38.24
48894;BMP280;34710;35.798;139.446;2022-07-29T04:32:28;100499.83;;;36.94
48894;BMP280;34710;35.798;139.446;2022-07-29T04:35:23;100493.70;;;38.19
48894;BMP280;34710;35.798;139.446;2022-07-29T04:38:31;100493.43;;;37.58
48894;BMP280;34710;35.798;139.446;2022-07-29T04:41:37;100495.61;;;37.07
48894;BMP280;34710;35.798;139.446;2022-07-29T04:44:48;100497.84;;;35.96
48894;BMP280;34710;35.798;139.446;2022-07-29T04:47:53;100493.21;;;35.94
48894;BMP280;34710;35.798;139.446;2022-07-29T04:50:58;100493.48;;;36.17
48894;BMP280;34710;35.798;139.446;2022-07-29T04:54:05;100488.12;;;37.11
48894;BMP280;34710;35.798;139.446;2022-07-29T04:57:09;100484.40;;;35.21
48894;BMP280;34710;35.798;139.446;2022-07-29T05:00:15;100480.53;;;36.39
48894;BMP280;34710;35.798;139.446;2022-07-29T05:03:11;100478.50;;;36.03
48894;BMP280;34710;35.798;139.446;2022-07-29T05:06:15;100477.19;;;36.33
48894;BMP280;34710;35.798;139.446;2022-07-29T05:09:43;100473.66;;;36.15
48894;BMP280;34710;35.798;139.446;2022-07-29T05:12:44;100482.23;;;37.17
48894;BMP280;34710;35.798;139.446;2022-07-29T05:15:45;100480.19;;;35.97
48894;BMP280;34710;35.798;139.446;2022-07-29T05:18:57;100473.22;;;36.41
48894;BMP280;34710;35.798;139.446;2022-07-29T05:21:56;100469.56;;;36.03
48894;BMP280;34710;35.798;139.446;2022-07-29T05:24:51;100461.43;;;35.71
48894;BMP280;34710;35.798;139.446;2022-07-29T05:27:50;100455.04;;;36.77
48894;BMP280;34710;35.798;139.446;2022-07-29T05:31:05;100451.51;;;37.56
48894;BMP280;34710;35.798;139.446;2022-07-29T05:34:15;100453.08;;;37.47
48894;BMP280;34710;35.798;139.446;2022-07-29T05:37:43;100444.68;;;37.75
48894;BMP280;34710;35.798;139.446;2022-07-29T05:41:10;100448.45;;;36.40
48894;BMP280;34710;35.798;139.446;2022-07-29T05:44:21;100442.63;;;37.00
48894;BMP280;34710;35.798;139.446;2022-07-29T05:47:49;100443.87;;;37.39
48894;BMP280;34710;35.798;139.446;2022-07-29T05:51:01;100436.95;;;37.92
48894;BMP280;34710;35.798;139.446;2022-07-29T05:54:14;100439.32;;;37.07
48894;BMP280;34710;35.798;139.446;2022-07-29T05:57:34;100444.21;;;36.49
48894;BMP280;34710;35.798;139.446;2022-07-29T06:01:03;100440.65;;;36.60
48894;BMP280;34710;35.798;139.446;2022-07-29T06:04:23;100436.44;;;37.36
48894;BMP280;34710;35.798;139.446;2022-07-29T06:07:58;100440.65;;;36.95
48894;BMP280;34710;35.798;139.446;2022-07-29T06:11:38;100436.16;;;37.94
48894;BMP280;34710;35.798;139.446;2022-07-29T06:14:52;100434.63;;;36.67
48894;BMP280;34710;35.798;139.446;2022-07-29T06:18:11;100437.72;;;35.45
48894;BMP280;34710;35.798;139.446;2022-07-29T06:21:34;100442.68;;;36.84
48894;BMP280;34710;35.798;139.446;2022-07-29T06:25:01;100441.90;;;35.05
48894;BMP280;34710;35.798;139.446;2022-07-29T06:27:31;100433.77;;;34.18
48894;BMP280;34710;35.798;139.446;2022-07-29T06:30:00;100433.71;;;34.52
48894;BMP280;34710;35.798;139.446;2022-07-29T06:32:29;100433.52;;;34.54
48894;BMP280;34710;35.798;139.446;2022-07-29T06:34:57;100435.74;;;36.07
48894;BMP280;34710;35.798;139.446;2022-07-29T06:37:27;100439.14;;;35.79
48894;BMP280;34710;35.798;139.446;2022-07-29T06:39:55;100434.05;;;35.01
48894;BMP280;34710;35.798;139.446;2022-07-29T06:42:24;100435.53;;;34.36
48894;BMP280;34710;35.798;139.446;2022-07-29T06:44:52;100440.42;;;33.66
48894;BMP280;34710;35.798;139.446;2022-07-29T06:47:21;100437.67;;;33.61
48894;BMP280;34710;35.798;139.446;2022-07-29T06:49:50;100433.07;;;33.40
48894;BMP280;34710;35.798;139.446;2022-07-29T06:52:19;100430.62;;;33.35
48894;BMP280;34710;35.798;139.446;2022-07-29T06:54:48;100431.97;;;33.89
48894;BMP280;34710;35.798;139.446;2022-07-29T06:57:16;100436.13;;;34.16
48894;BMP280;34710;35.798;139.446;2022-07-29T06:59:45;100437.93;;;34.00
48894;BMP280;34710;35.798;139.446;2022-07-29T07:02:13;100439.95;;;35.35
48894;BMP280;34710;35.798;139.446;2022-07-29T07:04:41;100435.95;;;34.02
48894;BMP280;34710;35.798;139.446;2022-07-29T07:07:10;100434.51;;;33.79
48894;BMP280;34710;35.798;139.446;2022-07-29T07:09:39;100437.17;;;34.50
48894;BMP280;34710;35.798;139.446;2022-07-29T07:12:08;100436.05;;;35.32
48894;BMP280;34710;35.798;139.446;2022-07-29T07:14:37;100437.96;;;34.78
48894;BMP280;34710;35.798;139.446;2022-07-29T07:17:06;100432.22;;;33.89
48894;BMP280;34710;35.798;139.446;2022-07-29T07:19:35;100431.37;;;34.90
48894;BMP280;34710;35.798;139.446;2022-07-29T07:22:03;100428.09;;;34.19
48894;BMP280;34710;35.798;139.446;2022-07-29T07:24:32;100427.98;;;35.09
48894;BMP280;34710;35.798;139.446;2022-07-29T07:27:00;100430.96;;;34.55
48894;BMP280;34710;35.798;139.446;2022-07-29T07:29:29;100432.06;;;35.41
48894;BMP280;34710;35.798;139.446;2022-07-29T07:31:58;100432.15;;;34.15
48894;BMP280;34710;35.798;139.446;2022-07-29T07:34:26;100428.39;;;34.71
48894;BMP280;34710;35.798;139.446;2022-07-29T07:36:54;100419.88;;;33.89
48894;BMP280;34710;35.798;139.446;2022-07-29T07:39:23;100418.70;;;34.06
48894;BMP280;34710;35.798;139.446;2022-07-29T07:41:51;100424.85;;;34.27
48894;BMP280;34710;35.798;139.446;2022-07-29T07:44:19;100425.55;;;34.25
48894;BMP280;34710;35.798;139.446;2022-07-29T07:46:48;100422.78;;;34.56
48894;BMP280;34710;35.798;139.446;2022-07-29T07:49:17;100415.33;;;35.49
48894;BMP280;34710;35.798;139.446;2022-07-29T07:51:45;100416.73;;;35.25
48894;BMP280;34710;35.798;139.446;2022-07-29T07:54:13;100411.04;;;33.47
48894;BMP280;34710;35.798;139.446;2022-07-29T07:56:41;100413.09;;;33.24
48894;BMP280;34710;35.798;139.446;2022-07-29T07:59:09;100419.54;;;32.46
48894;BMP280;34710;35.798;139.446;2022-07-29T08:01:38;100425.15;;;31.81
48894;BMP280;34710;35.798;139.446;2022-07-29T08:04:06;100421.08;;;31.80
48894;BMP280;34710;35.798;139.446;2022-07-29T08:06:35;100422.15;;;33.05
48894;BMP280;34710;35.798;139.446;2022-07-29T08:09:04;100428.44;;;33.54
48894;BMP280;34710;35.798;139.446;2022-07-29T08:11:33;100426.26;;;33.87
48894;BMP280;34710;35.798;139.446;2022-07-29T08:14:02;100422.43;;;33.79
48894;BMP280;34710;35.798;139.446;2022-07-29T08:16:31;100422.58;;;33.02
48894;BMP280;34710;35.798;139.446;2022-07-29T08:19:00;100428.99;;;33.00
48894;BMP280;34710;35.798;139.446;2022-07-29T08:21:29;100437.65;;;32.76
48894;BMP280;34710;35.798;139.446;2022-07-29T08:23:57;100437.50;;;32.63
48894;BMP280;34710;35.798;139.446;2022-07-29T08:26:26;100431.33;;;31.77
48894;BMP280;34710;35.798;139.446;2022-07-29T08:28:55;100427.75;;;31.21
48894;BMP280;34710;35.798;139.446;2022-07-29T08:31:23;100436.18;;;30.90
48894;BMP280;34710;35.798;139.446;2022-07-29T08:33:52;100440.36;;;30.61
48894;BMP280;34710;35.798;139.446;2022-07-29T08:36:20;100442.87;;;31.54
48894;BMP280;34710;35.798;139.446;2022-07-29T08:38:49;100451.45;;;30.73
48894;BMP280;34710;35.798;139.446;2022-07-29T08:41:18;100453.28;;;30.96
48894;BMP280;34710;35.798;139.446;2022-07-29T08:43:47;100450.56;;;31.36
48894;BMP280;34710;35.798;139.446;2022-07-29T08:46:16;100452.09;;;32.14
48894;BMP280;34710;35.798;139.446;2022-07-29T08:48:44;100475.14;;;31.37
48894;BMP280;34710;35.798;139.446;2022-07-29T08:51:15;100473.85;;;31.50
48894;BMP280;34710;35.798;139.446;2022-07-29T08:53:45;100479.06;;;30.76
48894;BMP280;34710;35.798;139.446;2022-07-29T08:56:15;100481.30;;;30.94
48894;BMP280;34710;35.798;139.446;2022-07-29T08:58:44;100482.27;;;30.82
48894;BMP280;34710;35.798;139.446;2022-07-29T09:01:14;100483.83;;;30.34
48894;BMP280;34710;35.798;139.446;2022-07-29T09:03:45;100487.93;;;29.31
48894;BMP280;34710;35.798;139.446;2022-07-29T09:06:15;100492.81;;;29.21
48894;BMP280;34710;35.798;139.446;2022-07-29T09:08:45;100488.38;;;29.15
48894;BMP280;34710;35.798;139.446;2022-07-29T09:11:14;100490.33;;;29.78
48894;BMP280;34710;35.798;139.446;2022-07-29T09:13:42;100497.10;;;29.90
48894;BMP280;34710;35.798;139.446;2022-07-29T09:16:11;100496.64;;;30.30
48894;BMP280;34710;35.798;139.446;2022-07-29T09:18:41;100489.91;;;30.18
48894;BMP280;34710;35.798;139.446;2022-07-29T09:21:12;100496.36;;;30.05
48894;BMP280;34710;35.798;139.446;2022-07-29T09:23:57;100496.09;;;29.33
48894;BMP280;34710;35.798;139.446;2022-07-29T09:26:30;100490.23;;;29.03
48894;BMP280;34710;35.798;139.446;2022-07-29T09:28:59;100492.25;;;29.60
48894;BMP280;34710;35.798;139.446;2022-07-29T09:31:36;100494.51;;;30.52
48894;BMP280;34710;35.798;139.446;2022-07-29T09:34:05;100496.34;;;29.81
48894;BMP280;34710;35.798;139.446;2022-07-29T09:36:40;100496.89;;;29.22
48894;BMP280;34710;35.798;139.446;2022-07-29T09:39:10;100497.03;;;30.30
48894;BMP280;34710;35.798;139.446;2022-07-29T09:41:49;100512.33;;;29.60
48894;BMP280;34710;35.798;139.446;2022-07-29T09:44:18;100516.87;;;29.73
48894;BMP280;34710;35.798;139.446;2022-07-29T09:46:56;100517.98;;;29.86
48894;BMP280;34710;35.798;139.446;2022-07-29T09:49:25;100526.22;;;30.36
48894;BMP280;34710;35.798;139.446;2022-07-29T09:52:05;100537.40;;;31.12
48894;BMP280;34710;35.798;139.446;2022-07-29T09:54:35;100544.08;;;31.94
48894;BMP280;34710;35.798;139.446;2022-07-29T09:57:06;100551.15;;;30.68
48894;BMP280;34710;35.798;139.446;2022-07-29T09:59:35;100559.56;;;29.74
48894;BMP280;34710;35.798;139.446;2022-07-29T10:02:12;100561.08;;;28.79
48894;BMP280;34710;35.798;139.446;2022-07-29T10:04:42;100562.91;;;28.63
48894;BMP280;34710;35.798;139.446;2022-07-29T10:07:11;100562.27;;;29.76
48894;BMP280;34710;35.798;139.446;2022-07-29T10:09:40;100563.51;;;30.38
48894;BMP280;34710;35.798;139.446;2022-07-29T10:12:17;100566.16;;;31.05
48894;BMP280;34710;35.798;139.446;2022-07-29T10:14:46;100563.69;;;32.19
48894;BMP280;34710;35.798;139.446;2022-07-29T10:17:17;100565.60;;;32.48
48894;BMP280;34710;35.798;139.446;2022-07-29T10:19:46;100571.78;;;31.68
48894;BMP280;34710;35.798;139.446;2022-07-29T10:22:15;100576.28;;;30.22
48894;BMP280;34710;35.798;139.446;2022-07-29T10:24:45;100576.15;;;31.10
48894;BMP280;34710;35.798;139.446;2022-07-29T10:27:15;100576.86;;;30.18
48894;BMP280;34710;35.798;139.446;2022-07-29T10:29:44;100577.37;;;30.16
48894;BMP280;34710;35.798;139.446;2022-07-29T10:32:31;100591.79;;;29.53
48894;BMP280;34710;35.798;139.446;2022-07-29T10:35:18;100596.58;;;30.59
48894;BMP280;34710;35.798;139.446;2022-07-29T10:38:07;100606.86;;;30.22
48894;BMP280;34710;35.798;139.446;2022-07-29T10:40:49;100606.26;;;30.89
48894;BMP280;34710;35.798;139.446;2022-07-29T10:43:25;100605.91;;;30.58
48894;BMP280;34710;35.798;139.446;2022-07-29T10:45:59;100612.29;;;30.70
48894;BMP280;34710;35.798;139.446;2022-07-29T10:48:29;100608.98;;;30.34
48894;BMP280;34710;35.798;139.446;2022-07-29T10:51:01;100620.49;;;28.89
48894;BMP280;34710;35.798;139.446;2022-07-29T10:53:48;100625.75;;;29.20
48894;BMP280;34710;35.798;139.446;2022-07-29T10:56:28;100633.47;;;29.48
48894;BMP280;34710;35.798;139.446;2022-07-29T10:59:33;100629.23;;;29.35
48894;BMP280;34710;35.798;139.446;2022-07-29T11:02:02;100625.76;;;29.02
48894;BMP280;34710;35.798;139.446;2022-07-29T11:05:11;100624.36;;;29.79
48894;BMP280;34710;35.798;139.446;2022-07-29T11:08:18;100621.10;;;29.33
48894;BMP280;34710;35.798;139.446;2022-07-29T11:10:50;100622.05;;;29.26
48894;BMP280;34710;35.798;139.446;2022-07-29T11:13:54;100617.96;;;29.85
48894;BMP280;34710;35.798;139.446;2022-07-29T11:16:23;100616.13;;;29.21
48894;BMP280;34710;35.798;139.446;2022-07-29T11:19:26;100613.06;;;29.40
48894;BMP280;34710;35.798;139.446;2022-07-29T11:21:55;100604.04;;;30.17
48894;BMP280;34710;35.798;139.446;2022-07-29T11:24:27;100604.53;;;30.58
48894;BMP280;34710;35.798;139.446;2022-07-29T11:27:32;100607.37;;;31.64
48894;BMP280;34710;35.798;139.446;2022-07-29T11:30:01;100607.98;;;30.03
48894;BMP280;34710;35.798;139.446;2022-07-29T11:32:38;100607.43;;;30.85
48894;BMP280;34710;35.798;139.446;2022-07-29T11:35:24;100606.15;;;30.50
48894;BMP280;34710;35.798;139.446;2022-07-29T11:38:25;100603.41;;;30.97
48894;BMP280;34710;35.798;139.446;2022-07-29T11:41:21;100600.31;;;30.66
48894;BMP280;34710;35.798;139.446;2022-07-29T11:43:53;100602.89;;;29.63
48894;BMP280;34710;35.798;139.446;2022-07-29T11:46:51;100607.01;;;29.27
48894;BMP280;34710;35.798;139.446;2022-07-29T11:49:23;100607.03;;;29.41
48894;BMP280;34710;35.798;139.446;2022-07-29T11:51:53;100607.26;;;30.67
48894;BMP280;34710;35.798;139.446;2022-07-29T11:54:26;100607.79;;;31.30
48894;BMP280;34710;35.798;139.446;2022-07-29T11:56:56;100607.26;;;31.14
48894;BMP280;34710;35.798;139.446;2022-07-29T11:59:27;100616.76;;;31.48
48894;BMP280;34710;35.798;139.446;2022-07-29T12:01:59;100622.38;;;31.72
48894;BMP280;34710;35.798;139.446;2022-07-29T12:04:29;100620.34;;;31.71
48894;BMP280;34710;35.798;139.446;2022-07-29T12:06:59;100619.07;;;32.05
48894;BMP280;34710;35.798;139.446;2022-07-29T12:09:30;100614.48;;;31.96
48894;BMP280;34710;35.798;139.446;2022-07-29T12:12:01;100611.59;;;31.16
48894;BMP280;34710;35.798;139.446;2022-07-29T12:14:32;100612.14;;;31.71
48894;BMP280;34710;35.798;139.446;2022-07-29T12:17:02;100616.25;;;32.21
48894;BMP280;34710;35.798;139.446;2022-07-29T12:19:43;100616.92;;;31.31
48894;BMP280;34710;35.798;139.446;2022-07-29T12:22:12;100618.19;;;31.43
48894;BMP280;34710;35.798;139.446;2022-07-29T12:24:53;100618.78;;;30.62
48894;BMP280;34710;35.798;139.446;2022-07-29T12:27:22;100621.33;;;31.69
48894;BMP280;34710;35.798;139.446;2022-07-29T12:29:59;100624.38;;;29.99
48894;BMP280;34710;35.798;139.446;2022-07-29T12:32:33;100631.05;;;28.65
48894;BMP280;34710;35.798;139.446;2022-07-29T12:35:05;100634.55;;;28.82
48894;BMP280;34710;35.798;139.446;2022-07-29T12:37:37;100633.31;;;29.59
48894;BMP280;34710;35.798;139.446;2022-07-29T12:40:09;100635.45;;;31.10
48894;BMP280;34710;35.798;139.446;2022-07-29T12:42:39;100629.84;;;31.54
48894;BMP280;34710;35.798;139.446;2022-07-29T12:45:09;100625.26;;;31.70
48894;BMP280;34710;35.798;139.446;2022-07-29T12:47:52;100625.54;;;32.50
48894;BMP280;34710;35.798;139.446;2022-07-29T12:50:21;100630.81;;;32.84
48894;BMP280;34710;35.798;139.446;2022-07-29T12:52:51;100631.33;;;33.02
48894;BMP280;34710;35.798;139.446;2022-07-29T12:55:42;100627.92;;;32.14
48894;BMP280;34710;35.798;139.446;2022-07-29T12:58:12;100627.23;;;32.06
48894;BMP280;34710;35.798;139.446;2022-07-29T13:00:42;100627.09;;;32.04
48894;BMP280;34710;35.798;139.446;2022-07-29T13:03:11;100627.31;;;32.39
48894;BMP280;34710;35.798;139.446;2022-07-29T13:05:43;100627.20;;;32.62
48894;BMP280;34710;35.798;139.446;2022-07-29T13:08:15;100622.42;;;32.41
48894;BMP280;34710;35.798;139.446;2022-07-29T13:10:45;100623.63;;;32.53
48894;BMP280;34710;35.798;139.446;2022-07-29T13:13:15;100627.11;;;32.55
48894;BMP280;34710;35.798;139.446;2022-07-29T13:15:46;100629.80;;;33.00
48894;BMP280;34710;35.798;139.446;2022-07-29T13:18:35;100631.86;;;31.58
48894;BMP280;34710;35.798;139.446;2022-07-29T13:21:13;100626.15;;;32.11
48894;BMP280;34710;35.798;139.446;2022-07-29T13:23:43;100621.30;;;32.68
48894;BMP280;34710;35.798;139.446;2022-07-29T13:26:13;100621.41;;;32.49
48894;BMP280;34710;35.798;139.446;2022-07-29T13:28:42;100618.37;;;32.87
48894;BMP280;34710;35.798;139.446;2022-07-29T13:31:12;100618.45;;;32.90
48894;BMP280;34710;35.798;139.446;2022-07-29T13:33:41;100617.20;;;33.10
48894;BMP280;34710;35.798;139.446;2022-07-29T13:36:11;100610.55;;;33.07
48894;BMP280;34710;35.798;139.446;2022-07-29T13:38:40;100611.02;;;32.90
48894;BMP280;34710;35.798;139.446;2022-07-29T13:41:09;100613.65;;;33.03
48894;BMP280;34710;35.798;139.446;2022-07-29T13:43:39;100614.03;;;32.62
48894;BMP280;34710;35.798;139.446;2022-07-29T13:46:09;100614.90;;;32.67
48894;BMP280;34710;35.798;139.446;2022-07-29T13:48:38;100615.20;;;32.95
48894;BMP280;34710;35.798;139.446;2022-07-29T13:51:08;100614.68;;;33.22
48894;BMP280;34710;35.798;139.446;2022-07-29T13:53:38;100607.68;;;32.47
48894;BMP280;34710;35.798;139.446;2022-07-29T13:56:07;100605.79;;;32.92
48894;BMP280;34710;35.798;139.446;2022-07-29T13:58:36;100607.95;;;32.50
48894;BMP280;34710;35.798;139.446;2022-07-29T14:01:06;100608.47;;;32.91
48894;BMP280;34710;35.798;139.446;2022-07-29T14:03:36;100608.93;;;33.05
48894;BMP280;34710;35.798;139.446;2022-07-29T14:06:05;100610.51;;;33.35
48894;BMP280;34710;35.798;139.446;2022-07-29T14:08:35;100606.69;;;32.86
48894;BMP280;34710;35.798;139.446;2022-07-29T14:11:05;100605.79;;;33.04
48894;BMP280;34710;35.798;139.446;2022-07-29T14:13:35;100604.61;;;32.23
48894;BMP280;34710;35.798;139.446;2022-07-29T14:16:05;100607.87;;;33.03
48894;BMP280;34710;35.798;139.446;2022-07-29T14:18:36;100613.92;;;32.62
48894;BMP280;34710;35.798;139.446;2022-07-29T14:21:06;100620.68;;;33.26
48894;BMP280;34710;35.798;139.446;2022-07-29T14:23:38;100619.92;;;32.80
48894;BMP280;34710;35.798;139.446;2022-07-29T14:26:07;100617.71;;;33.24
48894;BMP280;34710;35.798;139.446;2022-07-29T14:28:36;100616.51;;;32.82
48894;BMP280;34710;35.798;139.446;2022-07-29T14:31:05;100621.03;;;33.33
48894;BMP280;34710;35.798;139.446;2022-07-29T14:33:35;100622.35;;;32.72
48894;BMP280;34710;35.798;139.446;2022-07-29T14:36:04;100632.21;;;33.31
48894;BMP280;34710;35.798;139.446;2022-07-29T14:38:34;100638.81;;;33.45
48894;BMP280;34710;35.798;139.446;2022-07-29T14:41:04;100643.08;;;33.31
48894;BMP280;34710;35.798;139.446;2022-07-29T14:43:34;100642.87;;;33.27
48894;BMP280;34710;35.798;139.446;2022-07-29T14:46:03;100641.41;;;33.31
48894;BMP280;34710;35.798;139.446;2022-07-29T14:48:33;100640.77;;;32.92
48894;BMP280;34710;35.798;139.446;2022-07-29T14:51:03;100637.38;;;33.48
48894;BMP280;34710;35.798;139.446;2022-07-29T14:53:33;100638.28;;;33.02
48894;BMP280;34710;35.798;139.446;2022-07-29T14:56:03;100636.30;;;33.00
48894;BMP280;34710;35.798;139.446;2022-07-29T14:58:33;100635.16;;;33.29
48894;BMP280;34710;35.798;139.446;2022-07-29T15:01:02;100637.44;;;33.09